Time;durP1;ratioP1;P1;durP2;ratioP2;P2;SDS_P1;SDS_P2;PMS_P1;PMS_P2;Temp;Humidity;BMP_temperature;BMP_pressure;BME280_temperature;BME280_humidity;BME280_pressure;Samples;Min_cycle;Max_cycle;Signal;HPM_P1;HPM_P2
2023/03/17 00:01:39;;;;;;;10.05;5.57;;;;;;;;;;6334689;22;20026;-78
2023/03/17 00:04:05;;;;;;;8.98;6.85;;;;;;;;;;6307254;22;20034;-78
2023/03/17 00:06:32;;;;;;;6.15;5.38;;;;;;;;;;6307704;22;20520;-78
2023/03/17 00:08:58;;;;;;;5.53;4.97;;;;;;;;;;6334643;22;20013;-77
2023/03/17 00:11:25;;;;;;;8.32;5.95;;;;;;;;;;6334968;22;20102;-78
2023/03/17 00:13:51;;;;;;;6.13;5.57;;;;;;;;;;6307149;22;20104;-77
2023/03/17 00:16:21;;;;;;;5.97;5.38;;;;;;;;;;6306971;22;20011;-78
2023/03/17 00:18:48;;;;;;;6.88;5.53;;;;;;;;;;6307488;22;20063;-78
2023/03/17 00:21:15;;;;;;;8.30;6.45;;;;;;;;;;6334433;22;20216;-79
2023/03/17 00:23:43;;;;;;;8.80;7.15;;;;;;;;;;6335241;22;20484;-78
2023/03/17 00:26:10;;;;;;;7.80;7.10;;;;;;;;;;6307770;22;20439;-79
2023/03/17 00:28:37;;;;;;;7.72;6.93;;;;;;;;;;6307880;22;20015;-78
2023/03/17 00:31:17;;;;;;;7.82;6.43;;;;;;;;;;6306926;22;20010;-79
2023/03/17 00:33:45;;;;;;;6.95;6.22;;;;;;;;;;6307659;22;20007;-78
2023/03/17 00:36:16;;;;;;;7.30;6.63;;;;;;;;;;6335145;22;20489;-79
2023/03/17 00:38:42;;;;;;;8.75;7.70;;;;;;;;;;6335237;22;20010;-79
2023/03/17 00:41:08;;;;;;;6.60;6.00;;;;;;;;;;6334159;22;20409;-79
2023/03/17 00:43:35;;;;;;;8.30;6.55;;;;;;;;;;6334939;22;20015;-78
2023/03/17 00:46:01;;;;;;;8.30;7.35;;;;;;;;;;6334383;22;20060;-78
2023/03/17 00:48:28;;;;;;;6.65;6.05;;;;;;;;;;6334404;22;20011;-78
2023/03/17 00:50:54;;;;;;;9.15;6.22;;;;;;;;;;6335222;22;20011;-82
2023/03/17 00:53:20;;;;;;;6.97;6.35;;;;;;;;;;6335093;22;20171;-78
2023/03/17 00:55:47;;;;;;;8.32;6.75;;;;;;;;;;6335364;22;20017;-78
2023/03/17 00:58:15;;;;;;;10.13;6.05;;;;;;;;;;6334327;22;20033;-79
2023/03/17 01:00:41;;;;;;;8.20;7.28;;;;;;;;;;6307479;22;20336;-78
2023/03/17 01:03:10;;;;;;;8.23;5.30;;;;;;;;;;6334552;22;20007;-79
2023/03/17 01:05:37;;;;;;;7.82;6.57;;;;;;;;;;6281708;22;20011;-79
2023/03/17 01:08:03;;;;;;;5.63;5.13;;;;;;;;;;6307422;22;20042;-78
2023/03/17 01:10:29;;;;;;;6.65;6.05;;;;;;;;;;6334656;22;20022;-79
2023/03/17 01:12:56;;;;;;;9.30;8.30;;;;;;;;;;6335049;22;20017;-80
2023/03/17 01:15:23;;;;;;;6.07;5.45;;;;;;;;;;6334783;22;20029;-81
2023/03/17 01:17:50;;;;;;;7.70;6.90;;;;;;;;;;6307611;22;20090;-79
2023/03/17 01:20:17;;;;;;;7.68;5.85;;;;;;;;;;6282713;22;20052;-80
2023/03/17 01:22:43;;;;;;;7.10;6.40;;;;;;;;;;6282204;22;20022;-80
2023/03/17 01:25:10;;;;;;;6.80;5.47;;;;;;;;;;6335311;22;20015;-80
2023/03/17 01:27:36;;;;;;;6.70;5.57;;;;;;;;;;6307571;22;20018;-78
2023/03/17 01:30:03;;;;;;;8.27;7.05;;;;;;;;;;6307635;22;20103;-78
2023/03/17 01:32:29;;;;;;;7.88;6.82;;;;;;;;;;6306489;22;20034;-78
2023/03/17 01:34:55;;;;;;;6.40;5.80;;;;;;;;;;6333884;22;20459;-78
2023/03/17 01:37:22;;;;;;;6.95;6.22;;;;;;;;;;6306553;22;20113;-78
2023/03/17 01:39:48;;;;;;;9.02;7.25;;;;;;;;;;6334437;22;20041;-79
2023/03/17 01:42:18;;;;;;;8.02;6.60;;;;;;;;;;6280590;22;20064;-79
2023/03/17 01:45:00;;;;;;;6.78;6.18;;;;;;;;;;6282901;22;20006;-78
2023/03/17 01:47:27;;;;;;;6.50;5.80;;;;;;;;;;6282913;22;20120;-78
2023/03/17 01:49:53;;;;;;;6.82;5.95;;;;;;;;;;6336459;22;20040;-76
2023/03/17 01:52:21;;;;;;;7.68;6.97;;;;;;;;;;6308273;22;20093;-78
2023/03/17 01:54:49;;;;;;;8.27;5.82;;;;;;;;;;6308662;22;20006;-79
2023/03/17 01:57:23;;;;;;;7.13;6.43;;;;;;;;;;6335670;22;20011;-79
2023/03/17 01:59:54;;;;;;;9.40;6.45;;;;;;;;;;6308804;22;20019;-80
2023/03/17 02:02:39;;;;;;;9.48;8.75;;;;;;;;;;6335947;22;20026;-78
2023/03/17 02:05:08;;;;;;;7.78;5.57;;;;;;;;;;6282912;22;20011;-78
2023/03/17 02:07:34;;;;;;;8.40;5.88;;;;;;;;;;6283019;22;20075;-78
2023/03/17 02:10:00;;;;;;;8.35;6.20;;;;;;;;;;6336908;22;20014;-80
2023/03/17 02:12:26;;;;;;;7.32;6.15;;;;;;;;;;6308517;22;20015;-79
2023/03/17 02:14:52;;;;;;;7.28;6.57;;;;;;;;;;6309359;22;20011;-79
2023/03/17 02:17:42;;;;;;;6.55;5.55;;;;;;;;;;6292541;22;20025;-78
2023/03/17 02:20:11;;;;;;;6.05;5.13;;;;;;;;;;6335804;22;20143;-80
2023/03/17 02:22:37;;;;;;;6.53;6.03;;;;;;;;;;6336801;22;20044;-79
2023/03/17 02:25:05;;;;;;;10.40;5.75;;;;;;;;;;6308704;22;20397;-78
2023/03/17 02:27:34;;;;;;;6.28;5.68;;;;;;;;;;6307703;22;20017;-78
2023/03/17 02:30:00;;;;;;;10.20;6.88;;;;;;;;;;6335427;22;20010;-78
2023/03/17 02:32:29;;;;;;;6.80;6.13;;;;;;;;;;6283505;22;20022;-79
2023/03/17 02:34:56;;;;;;;6.63;5.95;;;;;;;;;;6282246;22;20111;-77
2023/03/17 02:37:22;;;;;;;5.82;5.32;;;;;;;;;;6335593;22;20005;-77
2023/03/17 02:39:48;;;;;;;5.82;5.40;;;;;;;;;;6281742;22;20089;-76
2023/03/17 02:42:14;;;;;;;4.43;4.13;;;;;;;;;;6335336;22;20023;-77
2023/03/17 02:44:40;;;;;;;5.10;4.60;;;;;;;;;;6335311;22;20011;-77
2023/03/17 02:47:07;;;;;;;10.43;4.70;;;;;;;;;;6335278;22;20017;-77
2023/03/17 02:49:33;;;;;;;5.72;5.22;;;;;;;;;;6308792;22;20017;-78
2023/03/17 02:52:00;;;;;;;4.47;4.18;;;;;;;;;;6231025;22;20401;-77
2023/03/17 02:54:26;;;;;;;5.53;5.03;;;;;;;;;;6335151;22;20006;-77
2023/03/17 02:56:52;;;;;;;5.88;5.32;;;;;;;;;;6307495;22;20022;-77
2023/03/17 02:59:18;;;;;;;5.95;5.35;;;;;;;;;;6335463;22;20011;-77
2023/03/17 03:01:44;;;;;;;4.50;4.10;;;;;;;;;;6335330;22;20083;-77
2023/03/17 03:04:10;;;;;;;6.78;5.47;;;;;;;;;;6334891;22;20021;-77
2023/03/17 03:06:38;;;;;;;4.50;4.10;;;;;;;;;;6307292;22;20071;-76
2023/03/17 03:09:04;;;;;;;5.63;5.10;;;;;;;;;;6307707;22;20014;-77
2023/03/17 03:11:30;;;;;;;5.35;4.60;;;;;;;;;;6334872;22;20011;-75
2023/03/17 03:13:56;;;;;;;4.95;4.55;;;;;;;;;;6334525;22;20089;-78
2023/03/17 03:16:22;;;;;;;4.63;4.32;;;;;;;;;;6281264;22;20014;-79
2023/03/17 03:18:48;;;;;;;4.30;3.88;;;;;;;;;;6336095;22;20363;-77
2023/03/17 03:21:14;;;;;;;4.40;4.10;;;;;;;;;;6335815;22;20044;-80
2023/03/17 03:23:40;;;;;;;4.45;4.05;;;;;;;;;;6336661;22;20091;-80
2023/03/17 03:26:06;;;;;;;5.65;5.13;;;;;;;;;;6336414;22;20482;-80
2023/03/17 03:28:32;;;;;;;8.18;5.22;;;;;;;;;;6336029;22;20014;-77
2023/03/17 03:30:58;;;;;;;6.25;4.93;;;;;;;;;;6313662;22;20084;-79
2023/03/17 03:33:24;;;;;;;4.53;4.13;;;;;;;;;;6349722;22;20486;-79
2023/03/17 03:35:50;;;;;;;5.30;4.30;;;;;;;;;;6353814;22;20470;-78
2023/03/17 03:38:16;;;;;;;5.43;4.78;;;;;;;;;;6352970;22;20007;-80
2023/03/17 03:40:43;;;;;;;5.43;3.92;;;;;;;;;;6351961;22;20500;-80
2023/03/17 03:43:09;;;;;;;5.13;4.63;;;;;;;;;;6344253;22;20022;-80
2023/03/17 03:45:36;;;;;;;5.35;4.35;;;;;;;;;;6339175;22;20007;-80
2023/03/17 03:48:02;;;;;;;5.20;4.57;;;;;;;;;;6338164;22;20411;-79
2023/03/17 03:50:27;;;;;;;4.43;4.03;;;;;;;;;;6336648;22;20011;-79
2023/03/17 03:52:54;;;;;;;4.63;4.22;;;;;;;;;;6336494;22;20006;-78
2023/03/17 03:55:20;;;;;;;4.43;4.05;;;;;;;;;;6336097;22;20014;-78
2023/03/17 03:57:46;;;;;;;4.57;4.18;;;;;;;;;;6336310;22;20018;-80
2023/03/17 04:00:16;;;;;;;4.05;3.40;;;;;;;;;;6335889;22;20007;-79
2023/03/17 04:02:45;;;;;;;4.55;4.15;;;;;;;;;;6308991;22;20074;-78
2023/03/17 04:05:16;;;;;;;6.93;4.07;;;;;;;;;;6281597;22;20015;-79
2023/03/17 04:07:42;;;;;;;6.47;4.22;;;;;;;;;;6306867;22;20010;-78
2023/03/17 04:10:11;;;;;;;4.03;3.63;;;;;;;;;;6308148;22;20013;-79
2023/03/17 04:12:38;;;;;;;3.63;3.33;;;;;;;;;;6281552;22;20026;-80
2023/03/17 04:15:05;;;;;;;4.25;3.90;;;;;;;;;;6308575;22;20014;-79
2023/03/17 04:17:31;;;;;;;3.75;3.45;;;;;;;;;;6341926;22;20018;-80
2023/03/17 04:19:58;;;;;;;3.70;3.40;;;;;;;;;;6345570;22;20011;-81
2023/03/17 04:22:25;;;;;;;4.57;4.03;;;;;;;;;;6315763;22;20019;-82
2023/03/17 04:24:51;;;;;;;4.22;3.40;;;;;;;;;;6349042;22;20097;-82
2023/03/17 04:27:17;;;;;;;3.70;3.28;;;;;;;;;;6354260;22;20014;-84
2023/03/17 04:29:43;;;;;;;2.78;2.58;;;;;;;;;;6299895;22;20018;-81
2023/03/17 04:32:12;;;;;;;4.13;3.45;;;;;;;;;;6353072;22;20354;-84
2023/03/17 04:34:38;;;;;;;5.22;3.17;;;;;;;;;;6317959;22;20079;-83
2023/03/17 04:37:05;;;;;;;3.10;2.83;;;;;;;;;;6267006;22;20013;-82
2023/03/17 04:39:31;;;;;;;3.75;3.45;;;;;;;;;;6319733;22;20059;-81
2023/03/17 04:41:57;;;;;;;3.17;2.88;;;;;;;;;;6317169;22;20030;-84
2023/03/17 04:44:23;;;;;;;3.20;2.97;;;;;;;;;;6319780;22;20007;-82
2023/03/17 04:46:49;;;;;;;3.95;3.60;;;;;;;;;;6293132;22;20102;-83
2023/03/17 04:49:15;;;;;;;2.95;2.75;;;;;;;;;;6239202;22;20011;-83
2023/03/17 04:51:41;;;;;;;3.03;2.83;;;;;;;;;;6320581;22;20041;-83
2023/03/17 04:54:07;;;;;;;2.97;2.75;;;;;;;;;;6320381;22;20018;-81
2023/03/17 04:56:35;;;;;;;3.17;2.88;;;;;;;;;;6321429;22;20011;-83
2023/03/17 04:59:01;;;;;;;3.35;2.75;;;;;;;;;;6266384;22;20003;-81
2023/03/17 05:01:27;;;;;;;3.38;3.08;;;;;;;;;;6318873;22;20022;-81
2023/03/17 05:03:53;;;;;;;4.40;2.85;;;;;;;;;;6294532;22;20358;-80
2023/03/17 05:06:19;;;;;;;2.92;2.63;;;;;;;;;;6277757;22;20019;-80
2023/03/17 05:08:45;;;;;;;3.25;2.28;;;;;;;;;;6304600;22;20030;-80
2023/03/17 05:11:11;;;;;;;2.95;2.75;;;;;;;;;;6305414;22;20356;-80
2023/03/17 05:13:37;;;;;;;2.95;2.72;;;;;;;;;;6305131;22;20106;-80
2023/03/17 05:16:03;;;;;;;2.65;2.33;;;;;;;;;;6277840;22;20008;-81
2023/03/17 05:18:29;;;;;;;4.22;2.45;;;;;;;;;;6254207;22;20015;-80
2023/03/17 05:20:56;;;;;;;6.10;2.38;;;;;;;;;;6306596;22;20026;-80
2023/03/17 05:23:22;;;;;;;4.60;2.88;;;;;;;;;;6306678;22;20536;-80
2023/03/17 05:25:48;;;;;;;3.13;2.83;;;;;;;;;;6279766;22;20014;-76
2023/03/17 05:28:14;;;;;;;4.53;3.22;;;;;;;;;;6276641;22;20073;-78
2023/03/17 05:30:41;;;;;;;3.78;3.42;;;;;;;;;;6304268;22;20403;-77
2023/03/17 05:33:07;;;;;;;5.18;3.30;;;;;;;;;;6304507;22;20110;-78
2023/03/17 05:35:33;;;;;;;3.15;2.90;;;;;;;;;;6304746;22;20109;-80
2023/03/17 05:37:59;;;;;;;2.35;2.25;;;;;;;;;;6305420;22;20015;-81
2023/03/17 05:40:25;;;;;;;3.55;2.25;;;;;;;;;;6275824;22;20011;-76
2023/03/17 05:42:51;;;;;;;2.50;2.30;;;;;;;;;;6303699;22;20026;-77
2023/03/17 05:45:18;;;;;;;3.03;2.53;;;;;;;;;;6250620;22;20007;-78
2023/03/17 05:47:44;;;;;;;2.33;2.15;;;;;;;;;;6276821;22;20359;-77
2023/03/17 05:50:11;;;;;;;2.47;2.28;;;;;;;;;;6304373;22;20018;-78
2023/03/17 05:52:37;;;;;;;5.03;2.38;;;;;;;;;;6276232;22;20105;-78
2023/03/17 05:55:03;;;;;;;2.90;2.70;;;;;;;;;;6303446;22;20053;-78
2023/03/17 05:57:30;;;;;;;2.88;2.55;;;;;;;;;;6305545;22;20023;-76
2023/03/17 05:59:56;;;;;;;3.20;3.00;;;;;;;;;;6278422;22;20047;-77
2023/03/17 06:02:22;;;;;;;2.63;2.40;;;;;;;;;;6250924;22;20101;-76
2023/03/17 06:04:48;;;;;;;4.85;2.40;;;;;;;;;;6304051;22;20444;-76
2023/03/17 06:07:14;;;;;;;2.75;2.55;;;;;;;;;;6276978;22;20015;-76
2023/03/17 06:09:40;;;;;;;3.63;1.98;;;;;;;;;;6303695;22;20019;-76
2023/03/17 06:12:07;;;;;;;3.17;2.33;;;;;;;;;;6304180;22;20015;-77
2023/03/17 06:14:33;;;;;;;3.13;2.60;;;;;;;;;;6303869;22;20011;-80
2023/03/17 06:16:58;;;;;;;3.05;2.85;;;;;;;;;;6304692;22;20022;-77
2023/03/17 06:19:25;;;;;;;2.88;2.67;;;;;;;;;;6304097;22;20018;-79
2023/03/17 06:21:51;;;;;;;3.13;2.60;;;;;;;;;;6304279;22;20054;-76
2023/03/17 06:24:17;;;;;;;1.90;1.80;;;;;;;;;;6304159;22;20372;-79
2023/03/17 06:26:43;;;;;;;2.35;2.25;;;;;;;;;;6277947;22;20018;-80
2023/03/17 06:29:10;;;;;;;2.40;1.95;;;;;;;;;;6306263;22;20363;-79
2023/03/17 06:31:36;;;;;;;3.08;2.80;;;;;;;;;;6276822;22;20065;-77
2023/03/17 06:34:02;;;;;;;2.47;2.08;;;;;;;;;;6304231;22;20439;-78
2023/03/17 06:36:29;;;;;;;2.13;1.95;;;;;;;;;;6275967;22;20019;-76
2023/03/17 06:38:55;;;;;;;2.10;2.00;;;;;;;;;;6302816;22;20014;-77
2023/03/17 06:41:21;;;;;;;2.10;2.00;;;;;;;;;;6303785;22;20019;-77
2023/03/17 06:43:47;;;;;;;2.72;2.53;;;;;;;;;;6305211;22;20011;-77
2023/03/17 06:46:13;;;;;;;2.80;2.60;;;;;;;;;;6304024;22;20007;-76
2023/03/17 06:48:39;;;;;;;4.28;2.33;;;;;;;;;;6275666;22;20076;-75
2023/03/17 06:51:05;;;;;;;1.95;1.85;;;;;;;;;;6303670;22;20011;-74
2023/03/17 06:53:32;;;;;;;2.67;2.47;;;;;;;;;;6303169;22;20094;-76
2023/03/17 06:55:58;;;;;;;2.75;2.05;;;;;;;;;;6303591;22;20011;-77
2023/03/17 06:58:24;;;;;;;2.60;2.40;;;;;;;;;;6304098;22;20713;-78
2023/03/17 07:00:52;;;;;;;2.72;2.33;;;;;;;;;;6304490;22;20021;-77
2023/03/17 07:03:20;;;;;;;2.10;2.00;;;;;;;;;;6305919;22;20472;-80
2023/03/17 07:05:46;;;;;;;4.55;2.30;;;;;;;;;;6310389;22;20011;-80
2023/03/17 07:08:12;;;;;;;5.05;2.20;;;;;;;;;;6284113;22;20448;-79
2023/03/17 07:10:40;;;;;;;2.58;2.40;;;;;;;;;;6308955;22;20003;-80
2023/03/17 07:13:07;;;;;;;2.28;1.95;;;;;;;;;;6306663;22;20018;-80
2023/03/17 07:15:34;;;;;;;6.85;2.50;;;;;;;;;;6313154;22;20059;-82
2023/03/17 07:18:01;;;;;;;2.22;2.03;;;;;;;;;;6330347;22;20636;-83
2023/03/17 07:20:27;;;;;;;2.97;2.70;;;;;;;;;;6301707;22;20022;-80
2023/03/17 07:22:53;;;;;;;3.00;2.33;;;;;;;;;;6324390;22;20019;-80
2023/03/17 07:25:19;;;;;;;3.00;2.67;;;;;;;;;;6298585;22;20328;-79
2023/03/17 07:27:45;;;;;;;2.85;2.50;;;;;;;;;;6327108;22;20011;-79
2023/03/17 07:30:11;;;;;;;4.85;3.95;;;;;;;;;;6327048;22;20014;-79
2023/03/17 07:32:38;;;;;;;3.03;2.72;;;;;;;;;;6298473;22;20465;-80
2023/03/17 07:35:04;;;;;;;3.03;2.72;;;;;;;;;;6323723;22;20157;-82
2023/03/17 07:37:30;;;;;;;4.85;2.42;;;;;;;;;;6307376;22;20015;-80
2023/03/17 07:39:56;;;;;;;3.38;2.85;;;;;;;;;;6305207;22;20011;-79
2023/03/17 07:42:22;;;;;;;3.35;2.83;;;;;;;;;;6276156;22;20398;-78
2023/03/17 07:44:48;;;;;;;3.17;2.97;;;;;;;;;;6277535;22;20034;-78
2023/03/17 07:47:14;;;;;;;3.10;2.90;;;;;;;;;;6280523;22;20363;-80
2023/03/17 07:49:40;;;;;;;5.43;3.60;;;;;;;;;;6252833;22;20011;-79
2023/03/17 07:52:07;;;;;;;4.50;3.00;;;;;;;;;;6307372;22;20015;-79
2023/03/17 07:54:33;;;;;;;2.67;2.47;;;;;;;;;;6304218;22;20011;-78
2023/03/17 07:56:59;;;;;;;3.42;3.13;;;;;;;;;;6304293;22;20086;-78
2023/03/17 07:59:26;;;;;;;2.97;2.78;;;;;;;;;;6303788;22;20011;-79
2023/03/17 08:01:52;;;;;;;3.25;3.00;;;;;;;;;;6304854;22;20097;-81
2023/03/17 08:04:18;;;;;;;2.20;2.00;;;;;;;;;;6322591;22;20007;-83
2023/03/17 08:06:45;;;;;;;3.58;3.08;;;;;;;;;;6319902;22;20015;-82
2023/03/17 08:09:11;;;;;;;3.50;2.80;;;;;;;;;;6317485;22;20007;-82
2023/03/17 08:11:38;;;;;;;2.47;2.00;;;;;;;;;;6310448;22;20011;-81
2023/03/17 08:14:04;;;;;;;2.30;2.10;;;;;;;;;;6283244;22;20022;-83
2023/03/17 08:16:30;;;;;;;2.47;2.15;;;;;;;;;;6325440;22;20110;-83
2023/03/17 08:18:57;;;;;;;3.17;2.45;;;;;;;;;;6328175;22;20026;-84
2023/03/17 08:21:24;;;;;;;2.20;2.00;;;;;;;;;;6329119;22;20010;-85
2023/03/17 08:23:50;;;;;;;2.10;2.00;;;;;;;;;;6331844;22;20003;-80
2023/03/17 08:26:17;;;;;;;2.38;2.25;;;;;;;;;;6330463;22;20010;-83
2023/03/17 08:28:44;;;;;;;2.63;2.42;;;;;;;;;;6329095;22;20003;-83
2023/03/17 08:31:14;;;;;;;4.50;3.90;;;;;;;;;;6321413;22;20041;-80
2023/03/17 08:33:41;;;;;;;2.42;2.05;;;;;;;;;;6319706;22;20015;-80
2023/03/17 08:36:08;;;;;;;5.28;3.83;;;;;;;;;;6318520;22;20035;-80
2023/03/17 08:38:37;;;;;;;2.55;2.15;;;;;;;;;;6306849;22;20109;-80
2023/03/17 08:41:05;;;;;;;2.00;1.90;;;;;;;;;;6313894;22;20011;-80
2023/03/17 08:43:31;;;;;;;2.53;2.00;;;;;;;;;;6312290;22;20015;-81
2023/03/17 08:46:00;;;;;;;1.90;1.80;;;;;;;;;;6303478;22;20007;-81
2023/03/17 08:48:26;;;;;;;1.92;1.83;;;;;;;;;;6275122;22;20097;-80
2023/03/17 08:50:52;;;;;;;1.90;1.73;;;;;;;;;;6277534;22;20007;-80
2023/03/17 08:53:19;;;;;;;1.90;1.80;;;;;;;;;;6255433;22;20008;-81
2023/03/17 08:55:45;;;;;;;3.65;2.10;;;;;;;;;;6306433;22;20038;-77
2023/03/17 08:58:12;;;;;;;2.50;2.30;;;;;;;;;;6304012;22;20035;-78
2023/03/17 09:00:39;;;;;;;2.08;1.98;;;;;;;;;;6304333;22;20606;-78
2023/03/17 09:03:05;;;;;;;3.47;3.17;;;;;;;;;;6277415;22;20439;-78
2023/03/17 09:05:32;;;;;;;2.00;1.90;;;;;;;;;;6284669;22;20007;-82
2023/03/17 09:07:58;;;;;;;2.42;2.17;;;;;;;;;;6311290;22;20017;-79
2023/03/17 09:10:24;;;;;;;3.80;2.17;;;;;;;;;;6278306;22;20094;-79
2023/03/17 09:12:50;;;;;;;2.53;1.90;;;;;;;;;;6278275;22;20129;-79
2023/03/17 09:15:16;;;;;;;1.83;1.73;;;;;;;;;;6305228;22;20011;-76
2023/03/17 09:17:42;;;;;;;1.70;1.60;;;;;;;;;;6303950;22;20395;-76
2023/03/17 09:20:10;;;;;;;1.90;1.80;;;;;;;;;;6264056;22;20011;-75
2023/03/17 09:22:36;;;;;;;1.77;1.67;;;;;;;;;;6302213;22;20486;-76
2023/03/17 09:25:02;;;;;;;1.73;1.63;;;;;;;;;;6304522;22;20007;-80
2023/03/17 09:27:28;;;;;;;2.10;1.90;;;;;;;;;;6303988;22;20015;-76
2023/03/17 09:29:55;;;;;;;2.00;1.90;;;;;;;;;;6302600;22;20108;-77
2023/03/17 09:32:21;;;;;;;2.05;1.92;;;;;;;;;;6277004;22;20073;-77
2023/03/17 09:34:47;;;;;;;2.00;1.90;;;;;;;;;;6302278;22;20042;-77
2023/03/17 09:37:13;;;;;;;1.85;1.58;;;;;;;;;;6304396;22;20542;-77
2023/03/17 09:39:40;;;;;;;1.80;1.70;;;;;;;;;;6304239;22;20451;-77
2023/03/17 09:42:12;;;;;;;1.77;1.67;;;;;;;;;;6301280;22;20023;-77
2023/03/17 09:44:52;;;;;;;2.45;2.20;;;;;;;;;;6303862;22;20018;-77
2023/03/17 09:47:27;;;;;;;2.28;2.10;;;;;;;;;;6304148;22;20090;-83
2023/03/17 09:49:55;;;;;;;1.60;1.50;;;;;;;;;;6305786;22;20519;-81
2023/03/17 09:52:23;;;;;;;2.10;1.90;;;;;;;;;;6303947;22;20084;-82
2023/03/17 09:54:49;;;;;;;3.20;2.00;;;;;;;;;;6311021;22;20062;-81
2023/03/17 09:57:17;;;;;;;4.07;2.53;;;;;;;;;;6304843;22;20011;-78
2023/03/17 09:59:54;;;;;;;1.80;1.70;;;;;;;;;;6280511;22;20003;-78
2023/03/17 10:02:25;;;;;;;2.33;2.00;;;;;;;;;;6323872;22;20053;-80
2023/03/17 10:04:51;;;;;;;1.95;1.85;;;;;;;;;;6326776;22;20041;-81
2023/03/17 10:07:20;;;;;;;2.33;2.20;;;;;;;;;;6323356;22;20101;-82
2023/03/17 10:10:11;;;;;;;2.35;2.15;;;;;;;;;;6320137;22;20038;-80
2023/03/17 10:12:40;;;;;;;1.98;1.88;;;;;;;;;;6314306;22;20018;-80
2023/03/17 10:15:42;;;;;;;4.38;2.47;;;;;;;;;;6310347;22;20088;-81
2023/03/17 10:18:08;;;;;;;2.85;2.65;;;;;;;;;;6249080;23;20016;-86
2023/03/17 10:20:34;;;;;;;4.78;2.00;;;;;;;;;;6290717;22;20023;-88
2023/03/17 10:23:03;;;;;;;2.13;1.92;;;;;;;;;;6337476;22;20022;-87
2023/03/17 10:25:32;;;;;;;1.67;1.58;;;;;;;;;;6310663;22;20028;-84
2023/03/17 10:28:11;;;;;;;2.40;2.00;;;;;;;;;;6341485;22;20077;-80
2023/03/17 10:30:37;;;;;;;2.30;2.20;;;;;;;;;;6336966;22;20035;-82
2023/03/17 10:33:05;;;;;;;2.47;2.33;;;;;;;;;;6311009;22;20014;-83
2023/03/17 10:35:34;;;;;;;1.88;1.70;;;;;;;;;;6315152;22;20011;-83
2023/03/17 10:38:01;;;;;;;2.22;2.05;;;;;;;;;;6343245;22;20006;-82
2023/03/17 10:40:29;;;;;;;2.00;1.83;;;;;;;;;;6309269;22;20477;-81
2023/03/17 10:42:59;;;;;;;1.65;1.55;;;;;;;;;;6308796;22;20050;-81
2023/03/17 10:45:29;;;;;;;1.70;1.60;;;;;;;;;;6280977;22;20479;-81
2023/03/17 10:47:56;;;;;;;1.70;1.55;;;;;;;;;;6334879;22;20102;-80
2023/03/17 10:50:24;;;;;;;2.40;2.20;;;;;;;;;;6308522;22;20006;-81
2023/03/17 10:52:56;;;;;;;2.50;2.05;;;;;;;;;;6335762;22;20711;-81
2023/03/17 10:55:23;;;;;;;3.63;2.58;;;;;;;;;;6283308;22;20021;-80
2023/03/17 10:58:00;;;;;;;1.92;1.83;;;;;;;;;;6302502;22;20752;-81
2023/03/17 11:00:26;;;;;;;1.80;1.50;;;;;;;;;;6305557;22;20011;-81
2023/03/17 11:02:55;;;;;;;1.92;1.70;;;;;;;;;;6307712;22;20019;-80
2023/03/17 11:05:22;;;;;;;1.80;1.73;;;;;;;;;;6305603;22;20090;-80
2023/03/17 11:07:48;;;;;;;2.05;1.83;;;;;;;;;;6305174;22;20065;-81
2023/03/17 11:10:22;;;;;;;2.97;2.67;;;;;;;;;;6309176;22;20418;-81
2023/03/17 11:12:53;;;;;;;1.80;1.70;;;;;;;;;;6308629;22;20458;-81
2023/03/17 11:15:19;;;;;;;2.25;2.05;;;;;;;;;;6306317;22;20007;-80
2023/03/17 11:17:46;;;;;;;2.55;2.38;;;;;;;;;;6304584;22;20015;-81
2023/03/17 11:20:42;;;;;;;4.78;1.88;;;;;;;;;;6306198;22;20106;-82
2023/03/17 11:23:11;;;;;;;1.75;1.65;;;;;;;;;;6286629;22;20532;-82
2023/03/17 11:25:38;;;;;;;1.73;1.70;;;;;;;;;;6306071;22;20034;-80
2023/03/17 11:28:20;;;;;;;1.05;1.05;;;;;;;;;;6305705;22;20087;-81
2023/03/17 11:30:46;;;;;;;1.30;1.30;;;;;;;;;;6306260;22;20108;-81
2023/03/17 11:33:20;;;;;;;1.40;1.30;;;;;;;;;;6307401;22;20085;-81
2023/03/17 11:35:51;;;;;;;3.83;2.00;;;;;;;;;;6306098;22;20082;-81
2023/03/17 11:38:21;;;;;;;1.70;1.60;;;;;;;;;;6305570;22;20745;-81
2023/03/17 11:41:01;;;;;;;2.53;1.88;;;;;;;;;;6278002;22;20011;-82
2023/03/17 11:43:44;;;;;;;2.08;1.98;;;;;;;;;;6278425;22;20087;-81
2023/03/17 11:46:10;;;;;;;1.63;1.30;;;;;;;;;;6278492;22;20007;-80
2023/03/17 11:48:43;;;;;;;2.10;2.00;;;;;;;;;;6303948;22;20015;-81
2023/03/17 11:51:09;;;;;;;1.63;1.60;;;;;;;;;;6278459;22;20011;-80
2023/03/17 11:53:54;;;;;;;1.70;1.60;;;;;;;;;;6305688;22;20006;-81
2023/03/17 11:56:23;;;;;;;1.88;1.70;;;;;;;;;;6305738;22;20068;-81
2023/03/17 11:58:55;;;;;;;1.50;1.40;;;;;;;;;;6279275;22;20021;-81
2023/03/17 12:01:23;;;;;;;1.70;1.60;;;;;;;;;;6307814;22;20110;-82
2023/03/17 12:03:56;;;;;;;2.15;1.95;;;;;;;;;;6306933;22;20060;-82
2023/03/17 12:06:27;;;;;;;1.77;1.67;;;;;;;;;;6305053;22;20011;-81
2023/03/17 12:09:02;;;;;;;2.55;2.35;;;;;;;;;;6304272;22;20007;-81
2023/03/17 12:11:30;;;;;;;1.80;1.65;;;;;;;;;;6307299;22;20015;-81
2023/03/17 12:14:15;;;;;;;1.65;1.55;;;;;;;;;;6316671;22;20460;-82
2023/03/17 12:16:45;;;;;;;2.60;1.90;;;;;;;;;;6281823;22;20007;-81
2023/03/17 12:19:13;;;;;;;1.95;1.85;;;;;;;;;;6309125;22;20011;-81
2023/03/17 12:21:53;;;;;;;2.15;2.00;;;;;;;;;;6279755;22;20363;-82
2023/03/17 12:24:21;;;;;;;2.25;2.15;;;;;;;;;;6304628;22;20386;-81
2023/03/17 12:26:58;;;;;;;2.03;1.92;;;;;;;;;;6280079;22;20013;-82
2023/03/17 12:29:24;;;;;;;2.22;2.03;;;;;;;;;;6304505;22;20026;-81
2023/03/17 12:32:07;;;;;;;2.00;1.90;;;;;;;;;;6307386;22;20011;-80
2023/03/17 12:34:43;;;;;;;3.00;1.80;;;;;;;;;;6325439;22;19999;-86
2023/03/17 12:37:11;;;;;;;2.03;1.83;;;;;;;;;;6294199;22;20007;-82
2023/03/17 12:39:37;;;;;;;2.60;2.05;;;;;;;;;;6309809;22;20447;-82
2023/03/17 12:42:04;;;;;;;1.90;1.80;;;;;;;;;;6306518;22;20027;-81
2023/03/17 12:44:44;;;;;;;2.40;2.30;;;;;;;;;;6312943;22;20467;-81
2023/03/17 12:47:20;;;;;;;2.67;2.17;;;;;;;;;;6306802;22;20405;-80
2023/03/17 12:49:49;;;;;;;1.95;1.85;;;;;;;;;;6275708;22;20547;-77
2023/03/17 12:52:15;;;;;;;2.97;2.55;;;;;;;;;;6302953;22;20015;-77
2023/03/17 12:54:45;;;;;;;1.73;1.63;;;;;;;;;;6300421;22;20083;-77
2023/03/17 12:57:14;;;;;;;2.22;2.03;;;;;;;;;;6274374;22;20011;-76
2023/03/17 12:59:41;;;;;;;1.98;1.88;;;;;;;;;;6274347;22;20012;-77
2023/03/17 13:02:26;;;;;;;1.33;1.33;;;;;;;;;;6249335;22;20076;-77
2023/03/17 13:04:56;;;;;;;2.20;2.00;;;;;;;;;;6275088;22;20011;-76
2023/03/17 13:07:32;;;;;;;2.70;2.07;;;;;;;;;;6302556;22;20011;-76
2023/03/17 13:10:01;;;;;;;1.90;1.80;;;;;;;;;;6302716;22;20089;-78
2023/03/17 13:12:39;;;;;;;1.92;1.83;;;;;;;;;;6301273;22;20022;-75
2023/03/17 13:15:24;;;;;;;3.00;2.70;;;;;;;;;;6301855;22;20011;-77
2023/03/17 13:17:51;;;;;;;2.05;1.95;;;;;;;;;;6302307;22;20022;-77
2023/03/17 13:20:17;;;;;;;2.17;2.00;;;;;;;;;;6295616;22;20016;-79
2023/03/17 13:23:04;;;;;;;2.20;2.10;;;;;;;;;;6276750;22;20069;-80
2023/03/17 13:25:40;;;;;;;4.53;2.50;;;;;;;;;;6273436;22;20046;-80
2023/03/17 13:28:12;;;;;;;2.10;2.00;;;;;;;;;;6275614;22;20007;-80
2023/03/17 13:30:39;;;;;;;2.03;1.92;;;;;;;;;;6275320;22;20026;-81
2023/03/17 13:33:08;;;;;;;2.30;2.20;;;;;;;;;;6286132;22;20011;-85
2023/03/17 13:35:40;;;;;;;2.30;2.10;;;;;;;;;;6296273;22;20023;-85
2023/03/17 13:38:06;;;;;;;2.08;1.98;;;;;;;;;;6295908;22;20011;-84
2023/03/17 13:40:45;;;;;;;2.10;2.00;;;;;;;;;;6292798;22;20071;-84
2023/03/17 13:43:20;;;;;;;2.20;1.90;;;;;;;;;;6292702;22;20067;-84
2023/03/17 13:45:47;;;;;;;2.30;2.20;;;;;;;;;;6291969;22;20067;-85
2023/03/17 13:48:33;;;;;;;3.92;2.30;;;;;;;;;;6290303;22;20404;-83
2023/03/17 13:51:08;;;;;;;3.55;2.50;;;;;;;;;;6287167;22;20015;-85
2023/03/17 13:53:37;;;;;;;3.10;2.60;;;;;;;;;;6291388;22;20023;-85
2023/03/17 13:56:15;;;;;;;6.40;2.55;;;;;;;;;;6292466;22;20067;-83
2023/03/17 13:58:49;;;;;;;5.78;2.92;;;;;;;;;;6292087;22;20410;-84
2023/03/17 14:01:15;;;;;;;2.47;2.00;;;;;;;;;;6265882;22;20023;-86
2023/03/17 14:03:43;;;;;;;2.22;1.75;;;;;;;;;;6265969;22;20038;-85
2023/03/17 14:06:10;;;;;;;2.40;2.20;;;;;;;;;;6291250;22;20011;-83
2023/03/17 14:08:38;;;;;;;2.15;1.95;;;;;;;;;;6295001;22;20014;-85
2023/03/17 14:11:07;;;;;;;2.83;2.05;;;;;;;;;;6297789;22;20002;-84
2023/03/17 14:13:48;;;;;;;2.60;2.40;;;;;;;;;;6300270;22;20000;-84
2023/03/17 14:16:23;;;;;;;2.37;2.17;;;;;;;;;;6298642;22;20006;-87
2023/03/17 14:18:51;;;;;;;2.72;2.53;;;;;;;;;;6296936;22;20310;-82
2023/03/17 14:21:20;;;;;;;2.58;2.40;;;;;;;;;;6316963;22;20033;-85
2023/03/17 14:23:53;;;;;;;1.67;1.67;;;;;;;;;;6330720;22;20232;-85
2023/03/17 14:26:19;;;;;;;3.22;2.10;;;;;;;;;;6303139;22;20007;-85
2023/03/17 14:28:46;;;;;;;2.42;2.22;;;;;;;;;;6327663;22;20061;-83
2023/03/17 14:31:18;;;;;;;1.88;1.60;;;;;;;;;;6329236;22;20007;-83
2023/03/17 14:33:44;;;;;;;3.03;2.00;;;;;;;;;;6317171;22;20018;-85
2023/03/17 14:36:11;;;;;;;2.45;2.10;;;;;;;;;;6325055;22;20033;-81
2023/03/17 14:38:38;;;;;;;2.50;2.30;;;;;;;;;;6311576;22;20011;-83
2023/03/17 14:41:13;;;;;;;2.97;2.50;;;;;;;;;;6313165;22;20062;-83
2023/03/17 14:43:40;;;;;;;6.38;3.97;;;;;;;;;;6314162;22;20015;-82
2023/03/17 14:46:11;;;;;;;3.05;2.50;;;;;;;;;;6291005;22;20007;-84
2023/03/17 14:48:37;;;;;;;4.93;2.40;;;;;;;;;;6319784;22;20011;-86
2023/03/17 14:51:27;;;;;;;2.10;2.00;;;;;;;;;;6319913;22;20007;-85